Flight Track Log - Related Links

Times and Time Zones

All times are in EST time to prevent confusion due to time zone crossing. See the N75ZM flight status page for this flight to view local times or setup timezone preferences in your user account.

Time Position Orientation Groundspeed Altitude Reporting Facility
EST Latitude Longitude Course Direction KTS MPH feet Rate Location/Type
Thu 08:36:21 AM 30.5222 -81.5350 331° Northwest 133 153 5,300  Level Jacksonville Center
Thu 08:37:21 AM 30.5517 -81.5539 331° Northwest 128 147 6,000 645 Climbing Jacksonville Center
Thu 08:38:22 AM 30.5856 -81.5750 332° Northwest 135 155 6,600 149 Climbing Jacksonville Center
Thu 08:44:43 AM 30.8333 -81.7289 332° Northwest 172 198 7,100 68 Climbing Jacksonville Center
Thu 08:45:43 AM 30.8733 -81.7550 331° Northwest 172 198 7,100  Level Jacksonville Center
Thu 08:46:43 AM 30.9153 -81.7786 334° Northwest 166 191 7,100  Level Jacksonville Center
Thu 08:47:43 AM 30.9572 -81.8047 332° Northwest 166 191 7,100  Level Jacksonville Center
Thu 08:48:43 AM 30.9950 -81.8311 329° Northwest 166 191 7,100  Level Jacksonville Center
Thu 08:49:43 AM 31.0369 -81.8572 332° Northwest 166 191 7,100  Level Jacksonville Center
Thu 08:50:43 AM 31.0767 -81.8811 333° Northwest 166 191 7,100  Level Jacksonville Center
Thu 08:51:43 AM 31.1167 -81.9050 333° Northwest 160 184 7,100  Level Jacksonville Center
Thu 08:52:43 AM 31.1522 -81.9264 333° Northwest 165 190 7,100  Level Jacksonville Center
Thu 08:53:43 AM 31.1942 -81.9528 332° Northwest 165 190 7,100  Level Jacksonville Center
Thu 08:54:43 AM 31.2342 -81.9767 333° Northwest 162 186 7,100 -100 Level Jacksonville Center
Thu 08:55:43 AM 31.2739 -82.0031 330° Northwest 162 186 6,900 -250 Descending Jacksonville Center
Thu 08:56:43 AM 31.3139 -82.0317 329° Northwest 167 192 6,600 -250 Descending Jacksonville Center
Thu 08:57:43 AM 31.3536 -82.0581 330° Northwest 167 192 6,400 -200 Descending Jacksonville Center
Thu 08:58:43 AM 31.3978 -82.0819 335° Northwest 167 192 6,200 -150 Descending Jacksonville Center
Thu 08:59:43 AM 31.4397 -82.1086 332° Northwest 167 192 6,100 -50 Descending Jacksonville Center
Thu 09:00:43 AM 31.4772 -82.1325 331° Northwest 167 192 6,100  Level Jacksonville Center
Thu 09:01:43 AM 31.5131 -82.1567 330° Northwest 162 186 6,100  Level Jacksonville Center
Thu 09:02:43 AM 31.5550 -82.1831 332° Northwest 162 186 6,100  Level Jacksonville Center
Thu 09:03:43 AM 31.5967 -82.2097 331° Northwest 162 186 6,100  Level Jacksonville Center
Thu 09:04:43 AM 31.6386 -82.2361 332° Northwest 162 186 6,100  Level Jacksonville Center
Thu 09:05:43 AM 31.6786 -82.2603 333° Northwest 167 192 6,100  Level Jacksonville Center
Thu 09:06:43 AM 31.7119 -82.2819 331° Northwest 162 186 6,100  Level Jacksonville Center
Thu 09:07:43 AM 31.7581 -82.3111 332° Northwest 162 186 6,100  Level Jacksonville Center
Thu 09:08:43 AM 31.7978 -82.3378 330° Northwest 162 186 6,100  Level Jacksonville Center
Thu 09:09:43 AM 31.8397 -82.3644 332° Northwest 162 186 6,100  Level Jacksonville Center
Thu 09:10:43 AM 31.8775 -82.3911 329° Northwest 162 186 6,100  Level Jacksonville Center
Thu 09:11:43 AM 31.9172 -82.4153 333° Northwest 162 186 6,100  Level Jacksonville Center
Thu 09:12:43 AM 31.9547 -82.4394 331° Northwest 162 186 6,100  Level Jacksonville Center
Thu 09:13:43 AM 31.9947 -82.4664 330° Northwest 162 186 6,100  Level Jacksonville Center
Thu 09:14:43 AM 32.0344 -82.4906 333° Northwest 162 186 6,100  Level Jacksonville Center
Thu 09:15:43 AM 32.0742 -82.5150 332° Northwest 162 186 6,100  Level Jacksonville Center
Thu 09:16:43 AM 32.1117 -82.5442 327° Northwest 162 186 6,100  Level Jacksonville Center
Thu 09:17:43 AM 32.1536 -82.5686 334° Northwest 162 186 6,100 50 Level Jacksonville Center
Thu 09:18:43 AM 32.1933 -82.5931 332° Northwest 162 186 6,200  Climbing Jacksonville Center
Thu 09:20:39 AM 32.2667 -82.6333 335° Northwest 165 190 6,100 -34 Descending Atlanta TRACON
Thu 09:21:39 AM 32.3167 -82.6667 331° Northwest 161 185 6,100  Level Atlanta TRACON
Thu 09:22:33 AM 32.3500 -82.6833 337° Northwest 164 189 6,100  Level Atlanta TRACON
Thu 09:23:33 AM 32.3833 -82.7167 320° Northwest 162 186 6,100 50 Level Atlanta TRACON
Thu 09:24:33 AM 32.4333 -82.7500 331° Northwest 163 188 6,200  Climbing Atlanta TRACON
Thu 09:25:33 AM 32.4667 -82.7667 337° Northwest 166 191 6,100 -50 Descending Atlanta TRACON
Thu 09:26:33 AM 32.5000 -82.8000 320° Northwest 163 188 6,100  Level Atlanta TRACON
Thu 09:27:33 AM 32.5500 -82.8167 344° North 163 188 6,100  Level Atlanta TRACON
Thu 09:28:33 AM 32.5833 -82.8500 320° Northwest 164 189 6,100  Level Atlanta TRACON
Thu 09:29:33 AM 32.6167 -82.8833 320° Northwest 167 192 6,100  Level Atlanta TRACON
Thu 09:30:33 AM 32.6500 -82.9167 320° Northwest 167 192 6,100  Level Atlanta TRACON
Thu 09:31:33 AM 32.6833 -82.9500 320° Northwest 164 189 6,100  Level Atlanta TRACON
Thu 09:32:33 AM 32.7167 -82.9833 320° Northwest 165 190 6,100  Level Atlanta TRACON
Thu 09:33:33 AM 32.7500 -83.0333 308° West 164 189 6,100  Level Atlanta TRACON
Thu 09:34:34 AM 32.7833 -83.0667 320° Northwest 167 192 6,100  Level Atlanta TRACON
Thu 09:35:34 AM 32.8333 -83.1000 331° Northwest 164 189 6,100  Level Atlanta TRACON
Thu 09:36:34 AM 32.8667 -83.1333 320° Northwest 166 191 6,100  Level Atlanta TRACON
Thu 09:37:34 AM 32.9000 -83.1667 320° Northwest 164 189 6,100  Level Atlanta TRACON
Thu 09:38:34 AM 32.9333 -83.2000 320° Northwest 164 189 6,100  Level Atlanta TRACON
Thu 09:39:34 AM 32.9667 -83.2333 320° Northwest 165 190 6,100  Level Atlanta TRACON
Thu 09:41:34 AM 33.0333 -83.3000 320° Northwest 165 190 6,100  Level Atlanta TRACON
Thu 09:42:34 AM 33.0667 -83.3500 309° West 166 191 6,100  Level Atlanta TRACON
Thu 09:43:28 AM 33.1000 -83.3667 337° Northwest 168 193 6,100  Level Atlanta TRACON
Thu 09:44:28 AM 33.1333 -83.4167 309° West 167 192 6,100 24 Level Atlanta TRACON
Thu 09:46:00 AM 33.1858 -83.4655 322° Northwest  Level FlightAware Approximate
Thu 09:47:34 AM 33.2500 -83.5167 322° Northwest 164 189 6,200  Level Atlanta TRACON
Thu 09:48:34 AM 33.2833 -83.5500 320° Northwest 167 192 6,200  Level Atlanta TRACON
Thu 09:49:34 AM 33.3167 -83.6000 309° West 168 193 6,200  Level Atlanta TRACON
Thu 09:50:34 AM 33.3500 -83.6333 320° Northwest 176 203 6,200  Level Atlanta TRACON
Thu 09:51:34 AM 33.3833 -83.6667 320° Northwest 160 184 6,200 -100 Level Atlanta TRACON
Thu 09:52:34 AM 33.4167 -83.7000 320° Northwest 167 192 6,000 -200 Descending Atlanta TRACON
Thu 09:53:34 AM 33.4667 -83.7167 344° North 174 200 5,800 -200 Descending Atlanta TRACON
Thu 09:54:34 AM 33.5167 -83.7500 331° Northwest 173 199 5,600 -250 Descending Atlanta TRACON
Thu 09:55:34 AM 33.5500 -83.7833 320° Northwest 173 199 5,300 -300 Descending Atlanta TRACON
Thu 09:56:34 AM 33.6000 -83.8000 344° North 173 199 5,000 -273 Descending Atlanta TRACON
Thu 09:57:46 AM 33.6500 -83.8333 331° Northwest 174 200 4,700 -238 Descending Atlanta TRACON
Thu 09:58:40 AM 33.6833 -83.8667 320° Northwest 173 199 4,500 -263 Descending Atlanta TRACON
Thu 09:59:40 AM 33.7167 -83.8833 337° Northwest 171 197 4,200 -300 Descending Atlanta TRACON
Thu 10:00:40 AM 33.7333 -83.9500 287° West 173 199 3,900 -250 Descending Atlanta TRACON
Thu 10:01:40 AM 33.7500 -84.0000 292° West 173 199 3,700 -250 Descending Atlanta TRACON
Thu 10:02:40 AM 33.7833 -84.0500 309° West 173 199 3,400 -250 Descending Atlanta TRACON
Thu 10:03:40 AM 33.8000 -84.1000 292° West 170 196 3,200 -105 Descending Atlanta TRACON
Thu 10:04:34 AM 33.8167 -84.1500 292° West 172 198 3,200 -105 Level Atlanta TRACON
Thu 10:05:34 AM 33.8333 -84.2000 292° West 161 185 3,000 -381 Descending Atlanta TRACON
Thu 10:06:40 AM 33.8333 -84.2500 270° West 136 157 2,400 -429 Descending Atlanta TRACON
Thu 10:07:40 AM 33.8500 -84.2833 301° West 105 121 2,100 -368 Descending Atlanta TRACON
Thu 10:08:34 AM 33.8500 -84.3167 270° West 109 125 1,700 -444 Descending Atlanta TRACON
Thu 10:10:00 AM 33.8667 -84.3000 301° West  Level FlightAware Approximate
Thu 10:17:00 AM 33.8756 -84.3020 301° West  Level Estimated
Thu 10:18:00 AM 33.8756 -84.3020 301° West  Level Estimated

Login

Don't have an account? Register now (free) for customized features, flight alerts, and more!